createdAt,value
2023-05-15T00:02:02.604Z,28.27
2023-05-15T00:04:30.305Z,31.70
2023-05-15T00:06:58.018Z,28.83
2023-05-15T00:09:25.665Z,33.97
2023-05-15T00:11:53.313Z,33.65
2023-05-15T00:14:21.018Z,32.25
2023-05-15T00:16:48.761Z,32.55
2023-05-15T00:19:18.615Z,33.78
2023-05-15T00:21:46.344Z,30.65
2023-05-15T00:24:14.102Z,33.40
2023-05-15T00:26:41.797Z,34.80
2023-05-15T00:29:09.420Z,32.58
2023-05-15T00:31:37.109Z,34.67
2023-05-15T00:34:04.773Z,37.00
2023-05-15T00:36:33.851Z,33.30
2023-05-15T00:39:01.492Z,32.92
2023-05-15T00:41:32.586Z,34.92
2023-05-15T00:44:01.203Z,33.67
2023-05-15T00:46:29.224Z,34.25
2023-05-15T00:48:57.664Z,34.58
2023-05-15T00:51:25.618Z,32.60
2023-05-15T00:53:54.978Z,31.52
2023-05-15T00:56:24.209Z,30.35
2023-05-15T00:58:53.210Z,31.55
2023-05-15T01:01:21.887Z,30.00
2023-05-15T01:03:49.614Z,32.78
2023-05-15T01:06:17.349Z,31.90
2023-05-15T01:08:46.842Z,31.63
2023-05-15T01:11:17.228Z,30.48
2023-05-15T01:13:45.224Z,31.08
2023-05-15T01:16:12.898Z,31.98
2023-05-15T01:18:40.665Z,29.25
2023-05-15T01:21:23.226Z,31.00
2023-05-15T01:23:57.376Z,31.50
2023-05-15T01:26:53.674Z,32.90
2023-05-15T01:29:24.537Z,30.98
2023-05-15T01:31:56.898Z,31.33
2023-05-15T01:34:30.240Z,33.60
2023-05-15T01:36:58.757Z,32.03
2023-05-15T01:39:29.046Z,34.13
2023-05-15T01:42:01.302Z,32.00
2023-05-15T01:44:31.855Z,34.10
2023-05-15T01:47:00.169Z,33.97
2023-05-15T01:49:28.684Z,33.70
2023-05-15T01:51:59.399Z,32.47
2023-05-15T01:54:32.176Z,39.33
2023-05-15T01:57:00.142Z,35.35
2023-05-15T01:59:28.397Z,38.08
2023-05-15T02:01:58.043Z,38.80
2023-05-15T02:04:27.586Z,38.17
2023-05-15T02:06:55.970Z,41.38
2023-05-15T02:09:23.902Z,36.85
2023-05-15T02:11:51.876Z,39.20
2023-05-15T02:14:19.525Z,37.55
2023-05-15T02:16:47.329Z,35.47
2023-05-15T02:19:17.416Z,41.42
2023-05-15T02:21:45.240Z,37.92
2023-05-15T02:24:12.874Z,40.45
2023-05-15T02:26:46.984Z,39.00
2023-05-15T02:29:19.750Z,36.97
2023-05-15T02:31:50.235Z,40.42
2023-05-15T02:34:23.050Z,37.35
2023-05-15T02:36:53.118Z,38.40
2023-05-15T02:39:23.500Z,37.20
2023-05-15T02:41:52.525Z,47.42
2023-05-15T02:44:20.928Z,44.17
2023-05-15T02:46:48.664Z,38.08
2023-05-15T02:49:16.547Z,56.47
2023-05-15T02:51:45.646Z,53.70
2023-05-15T02:54:13.511Z,67.63
2023-05-15T02:56:41.199Z,41.92
2023-05-15T02:59:09.494Z,57.90
2023-05-15T03:01:37.277Z,53.65
2023-05-15T03:04:05.286Z,66.88
2023-05-15T03:06:32.986Z,66.72
2023-05-15T03:09:01.989Z,41.58
2023-05-15T03:11:29.776Z,68.22
2023-05-15T03:14:00.203Z,67.95
2023-05-15T03:16:28.660Z,69.18
2023-05-15T03:18:56.419Z,60.53
2023-05-15T03:21:24.162Z,52.97
2023-05-15T03:23:51.863Z,60.03
2023-05-15T03:26:21.384Z,54.85
2023-05-15T03:28:49.066Z,48.58
2023-05-15T03:31:16.714Z,63.75
2023-05-15T03:33:45.790Z,53.47
2023-05-15T03:36:13.406Z,46.17
2023-05-15T03:38:43.965Z,48.17
2023-05-15T03:41:11.672Z,41.92
2023-05-15T03:43:40.703Z,48.33
2023-05-15T03:46:08.616Z,36.97
2023-05-15T03:48:36.254Z,38.50
2023-05-15T03:51:04.740Z,42.85
2023-05-15T03:53:32.413Z,50.85
2023-05-15T03:56:00.110Z,35.20
2023-05-15T03:58:36.009Z,46.15
2023-05-15T04:01:05.149Z,35.35
2023-05-15T04:03:32.838Z,47.55
2023-05-15T04:06:00.807Z,41.95
2023-05-15T04:08:29.737Z,47.17
2023-05-15T04:10:57.408Z,53.60
2023-05-15T04:13:25.062Z,38.60
2023-05-15T04:15:54.055Z,48.50
2023-05-15T04:18:23.945Z,36.67
2023-05-15T04:20:52.628Z,33.13
2023-05-15T04:23:20.244Z,33.60
2023-05-15T04:25:48.791Z,40.25
2023-05-15T04:28:17.040Z,34.05
2023-05-15T04:30:44.698Z,36.00
2023-05-15T04:33:12.536Z,47.40
2023-05-15T04:35:41.690Z,32.00
2023-05-15T04:38:09.477Z,31.85
2023-05-15T04:40:37.346Z,47.42
2023-05-15T04:43:06.004Z,39.05
2023-05-15T04:45:33.761Z,36.25
2023-05-15T04:48:01.434Z,39.30
2023-05-15T04:50:29.143Z,30.65
2023-05-15T04:52:58.515Z,32.28
2023-05-15T04:55:26.304Z,32.92
2023-05-15T04:57:54.204Z,29.35
2023-05-15T05:00:22.543Z,34.85
2023-05-15T05:02:51.182Z,33.60
2023-05-15T05:05:19.008Z,31.27
2023-05-15T05:07:46.613Z,31.27
2023-05-15T05:10:17.061Z,42.45
2023-05-15T05:12:44.686Z,37.63
2023-05-15T05:15:12.541Z,35.55
2023-05-15T05:17:40.193Z,40.08
2023-05-15T05:20:12.818Z,35.60
2023-05-15T05:22:40.951Z,31.85
2023-05-15T05:25:09.108Z,40.28
2023-05-15T05:27:38.110Z,36.22
2023-05-15T05:30:06.328Z,36.35
2023-05-15T05:32:34.192Z,31.75
2023-05-15T05:35:02.122Z,32.03
2023-05-15T05:37:29.819Z,35.22
2023-05-15T05:39:58.136Z,32.42
2023-05-15T05:42:25.816Z,33.03
2023-05-15T05:44:54.847Z,31.70
2023-05-15T05:47:22.528Z,31.67
2023-05-15T05:49:50.392Z,35.72
2023-05-15T05:52:19.585Z,32.20
2023-05-15T05:54:48.165Z,31.95
2023-05-15T05:57:16.007Z,35.67
2023-05-15T05:59:43.960Z,35.30
2023-05-15T06:02:13.500Z,33.70
2023-05-15T06:04:41.159Z,31.60
2023-05-15T06:07:08.853Z,32.83
2023-05-15T06:09:36.457Z,30.48
2023-05-15T06:12:05.003Z,33.60
2023-05-15T06:14:32.732Z,32.42
2023-05-15T06:17:00.528Z,32.60
2023-05-15T06:19:30.281Z,33.20
2023-05-15T06:21:57.988Z,32.65
2023-05-15T06:24:25.707Z,33.63
2023-05-15T06:26:53.497Z,32.20
2023-05-15T06:29:21.487Z,32.78
2023-05-15T06:31:49.240Z,32.60
2023-05-15T06:34:16.893Z,29.70
2023-05-15T06:36:46.107Z,29.30
2023-05-15T06:39:14.323Z,29.58
2023-05-15T06:41:43.732Z,26.83
2023-05-15T06:47:35.672Z,27.55
2023-05-15T06:50:03.420Z,31.65
2023-05-15T06:52:32.709Z,30.98
2023-05-15T06:55:00.731Z,28.83
2023-05-15T06:57:28.591Z,27.15
2023-05-15T06:59:57.569Z,29.42
2023-05-15T07:02:25.250Z,30.95
2023-05-15T07:04:54.446Z,27.52
2023-05-15T07:07:22.108Z,27.63
2023-05-15T07:09:51.185Z,29.88
2023-05-15T07:12:20.461Z,29.80
2023-05-15T07:14:48.121Z,28.35
2023-05-15T07:17:16.278Z,26.08
2023-05-15T07:19:45.000Z,28.05
2023-05-15T07:22:12.723Z,24.40
2023-05-15T07:24:40.661Z,26.27
2023-05-15T07:27:10.017Z,27.00
2023-05-15T07:29:37.727Z,26.15
2023-05-15T07:32:05.977Z,25.55
2023-05-15T07:34:33.903Z,23.83
2023-05-15T07:37:01.554Z,25.65
2023-05-15T07:39:29.972Z,24.63
2023-05-15T07:41:57.843Z,21.15
2023-05-15T07:44:26.829Z,24.63
2023-05-15T07:46:56.500Z,22.75
2023-05-15T07:49:24.151Z,23.67
2023-05-15T07:51:51.809Z,22.70
2023-05-15T07:54:19.492Z,21.20
2023-05-15T07:56:47.140Z,18.73
2023-05-15T07:59:16.165Z,19.73
2023-05-15T08:01:45.354Z,19.98
2023-05-15T08:04:14.410Z,19.42
2023-05-15T08:06:42.768Z,18.98
2023-05-15T08:09:14.463Z,20.45
2023-05-15T08:11:46.675Z,18.40
2023-05-15T08:14:14.902Z,20.27
2023-05-15T08:16:42.788Z,18.73
2023-05-15T08:19:12.539Z,18.33
2023-05-15T08:21:40.905Z,16.75
2023-05-15T08:24:08.782Z,18.58
2023-05-15T08:26:36.438Z,21.02
2023-05-15T08:29:04.213Z,20.85
2023-05-15T08:31:32.056Z,19.48
2023-05-15T08:34:20.334Z,20.17
2023-05-15T08:36:47.994Z,19.65
2023-05-15T08:39:15.625Z,19.27
2023-05-15T08:41:45.792Z,18.13
2023-05-15T08:44:14.193Z,18.63
2023-05-15T08:46:42.240Z,19.10
2023-05-15T08:49:15.989Z,17.55
2023-05-15T08:51:45.090Z,18.88
2023-05-15T08:54:12.753Z,17.60
2023-05-15T08:56:41.038Z,19.13
2023-05-15T08:59:08.729Z,19.48
2023-05-15T09:01:37.520Z,18.00
2023-05-15T09:04:06.532Z,17.17
2023-05-15T09:06:34.827Z,15.13
2023-05-15T09:09:05.439Z,17.27
2023-05-15T09:11:33.728Z,17.23
2023-05-15T09:14:01.606Z,16.05
2023-05-15T09:16:29.363Z,14.88
2023-05-15T09:18:59.456Z,15.95
2023-05-15T09:21:27.890Z,15.68
2023-05-15T09:23:56.156Z,14.07
2023-05-15T09:26:25.854Z,15.95
2023-05-15T09:29:03.057Z,16.02
2023-05-15T09:31:31.758Z,17.00
2023-05-15T09:34:00.763Z,17.58
2023-05-15T09:36:30.169Z,15.00
2023-05-15T09:39:00.996Z,15.68
2023-05-15T09:41:30.917Z,15.50
2023-05-15T09:44:01.518Z,14.35
2023-05-15T09:46:29.332Z,16.15
2023-05-15T09:48:57.329Z,15.85
2023-05-15T09:51:25.061Z,14.88
2023-05-15T09:53:53.315Z,17.42
2023-05-15T09:56:21.926Z,15.65
2023-05-15T09:58:57.804Z,13.23
2023-05-15T10:01:25.929Z,13.82
2023-05-15T10:04:00.706Z,15.60
2023-05-15T10:06:28.878Z,16.25
2023-05-15T10:08:57.705Z,18.25
2023-05-15T10:11:25.791Z,14.25
2023-05-15T10:13:53.403Z,16.00
2023-05-15T10:16:23.437Z,14.98
2023-05-15T10:18:52.484Z,15.63
2023-05-15T10:21:24.798Z,16.42
2023-05-15T10:23:54.452Z,17.60
2023-05-15T10:26:25.164Z,16.40
2023-05-15T10:28:53.189Z,17.48
2023-05-15T10:31:23.100Z,16.67
2023-05-15T10:33:52.180Z,16.10
2023-05-15T10:36:20.784Z,18.42
2023-05-15T10:38:48.822Z,16.05
2023-05-15T10:41:18.654Z,18.13
2023-05-15T10:43:46.939Z,19.35
2023-05-15T10:46:15.014Z,18.48
2023-05-15T10:48:44.663Z,18.73
2023-05-15T10:51:16.456Z,18.23
2023-05-15T10:53:44.231Z,17.30
2023-05-15T10:56:18.181Z,17.30
2023-05-15T10:58:47.465Z,16.65
2023-05-15T11:01:32.151Z,18.90
2023-05-15T11:04:11.585Z,18.33
2023-05-15T11:06:40.107Z,19.77
2023-05-15T11:09:27.641Z,19.25
2023-05-15T11:11:57.456Z,18.98
2023-05-15T11:14:25.837Z,17.20
2023-05-15T11:17:04.090Z,23.60
2023-05-15T11:19:40.371Z,19.63
2023-05-15T11:22:18.208Z,18.55
2023-05-15T11:24:52.409Z,17.77
2023-05-15T11:27:21.082Z,19.48
2023-05-15T11:30:04.859Z,20.25
2023-05-15T11:32:32.942Z,18.23
2023-05-15T11:35:04.077Z,18.27
2023-05-15T11:37:31.839Z,17.33
2023-05-15T11:39:59.474Z,19.60
2023-05-15T11:42:28.495Z,20.90
2023-05-15T11:44:57.809Z,21.38
2023-05-15T11:47:26.477Z,20.15
2023-05-15T11:49:54.135Z,20.08
2023-05-15T11:52:23.252Z,22.05
2023-05-15T11:54:51.220Z,17.67
2023-05-15T11:57:21.903Z,19.80
2023-05-15T11:59:54.643Z,17.33
2023-05-15T12:02:22.276Z,16.15
2023-05-15T12:04:50.490Z,16.52
2023-05-15T12:07:19.055Z,13.68
2023-05-15T12:09:53.611Z,14.20
2023-05-15T12:12:21.940Z,12.05
2023-05-15T12:14:50.154Z,10.40
2023-05-15T12:17:19.393Z,7.18
2023-05-15T12:19:47.489Z,3.53
2023-05-15T12:22:15.727Z,3.25
2023-05-15T12:24:43.603Z,1.80
2023-05-15T12:27:12.725Z,1.70
2023-05-15T12:29:41.721Z,1.95
2023-05-15T12:32:09.799Z,1.63
2023-05-15T12:34:37.989Z,1.60
2023-05-15T12:37:15.008Z,1.75
2023-05-15T12:39:51.583Z,2.30
2023-05-15T12:42:20.692Z,1.63
2023-05-15T12:44:51.420Z,1.88
2023-05-15T12:47:23.460Z,1.75
2023-05-15T12:49:51.087Z,1.70
2023-05-15T12:52:18.698Z,1.73
2023-05-15T12:54:47.127Z,2.47
2023-05-15T12:57:15.017Z,2.50
2023-05-15T12:59:44.089Z,3.00
2023-05-15T13:02:12.372Z,2.55
2023-05-15T13:04:40.327Z,3.03
2023-05-15T13:07:08.903Z,1.95
2023-05-15T13:09:36.804Z,2.38
2023-05-15T13:12:04.950Z,2.33
2023-05-15T13:14:35.688Z,2.17
2023-05-15T13:17:04.894Z,2.53
2023-05-15T13:19:34.669Z,2.35
2023-05-15T13:22:02.349Z,2.55
2023-05-15T13:24:29.979Z,2.47
2023-05-15T13:26:57.629Z,2.80
2023-05-15T13:29:25.280Z,2.50
2023-05-15T13:31:53.247Z,3.03
2023-05-15T13:34:22.360Z,2.45
2023-05-15T13:36:50.041Z,2.83
2023-05-15T13:39:17.796Z,2.58
2023-05-15T13:41:45.702Z,3.08
2023-05-15T13:44:15.048Z,2.75
2023-05-15T13:46:43.329Z,2.70
2023-05-15T13:49:11.262Z,2.00
2023-05-15T13:51:40.278Z,2.30
2023-05-15T13:54:08.013Z,2.33
2023-05-15T13:56:36.012Z,2.67
2023-05-15T13:59:04.096Z,2.78
2023-05-15T14:01:32.063Z,2.63
2023-05-15T14:03:59.781Z,4.20
2023-05-15T14:06:28.477Z,3.80
2023-05-15T14:08:57.675Z,3.03
2023-05-15T14:11:25.495Z,2.97
2023-05-15T14:13:53.124Z,3.38
2023-05-15T14:16:20.829Z,3.22
2023-05-15T14:18:48.517Z,3.72
2023-05-15T14:21:16.335Z,3.28
2023-05-15T14:23:44.305Z,3.65
2023-05-15T14:26:13.553Z,3.20
2023-05-15T14:28:41.244Z,3.03
2023-05-15T14:31:08.925Z,4.10
2023-05-15T14:33:36.648Z,4.15
2023-05-15T14:36:05.098Z,3.25
2023-05-15T14:38:32.920Z,3.35
2023-05-15T14:41:00.682Z,4.05
2023-05-15T14:43:30.220Z,3.97
2023-05-15T14:45:57.899Z,3.42
2023-05-15T14:48:25.800Z,3.78
2023-05-15T14:50:53.427Z,4.13
2023-05-15T14:53:21.398Z,4.00
2023-05-15T14:55:50.779Z,4.10
2023-05-15T14:58:18.498Z,3.53
2023-05-15T15:00:48.274Z,5.18
2023-05-15T15:03:16.313Z,3.35
2023-05-15T15:05:44.173Z,4.65
2023-05-15T15:08:12.494Z,3.45
2023-05-15T15:10:40.912Z,3.88
2023-05-15T15:13:10.236Z,5.00
2023-05-15T15:15:37.879Z,4.07
2023-05-15T15:18:07.332Z,3.20
2023-05-15T15:20:35.146Z,3.25
2023-05-15T15:23:04.145Z,3.88
2023-05-15T15:25:32.941Z,4.65
2023-05-15T15:28:01.033Z,3.78
2023-05-15T15:30:28.792Z,3.70
2023-05-15T15:32:56.462Z,4.03
2023-05-15T15:35:25.515Z,3.25
2023-05-15T15:37:53.224Z,3.88
2023-05-15T15:40:20.976Z,5.65
2023-05-15T15:42:48.853Z,5.03
2023-05-15T15:45:17.470Z,4.57
2023-05-15T15:47:47.522Z,3.30
2023-05-15T15:50:15.592Z,3.95
2023-05-15T15:52:44.600Z,4.18
2023-05-15T15:55:12.418Z,3.78
2023-05-15T15:57:41.232Z,3.42
2023-05-15T16:00:09.841Z,3.45
2023-05-15T16:02:39.799Z,4.00
2023-05-15T16:05:07.865Z,4.13
2023-05-15T16:10:45.613Z,4.28
2023-05-15T16:13:13.374Z,4.47
2023-05-15T16:15:41.484Z,4.35
2023-05-15T16:18:09.181Z,2.85
2023-05-15T16:20:36.945Z,3.53
2023-05-15T16:23:06.019Z,4.35
2023-05-15T16:25:33.907Z,4.32
2023-05-15T16:28:01.869Z,3.42
2023-05-15T16:30:44.263Z,4.72
2023-05-15T16:33:16.129Z,2.90
2023-05-15T16:35:43.839Z,2.80
2023-05-15T16:38:13.357Z,2.90
2023-05-15T16:40:41.290Z,3.92
2023-05-15T16:43:09.034Z,3.88
2023-05-15T16:45:36.762Z,3.55
2023-05-15T16:48:04.593Z,3.13
2023-05-15T16:50:32.378Z,3.30
2023-05-15T16:53:00.020Z,3.10
2023-05-15T16:55:29.423Z,3.72
2023-05-15T16:57:57.175Z,2.63
2023-05-15T17:00:24.995Z,2.42
2023-05-15T17:02:53.007Z,3.25
2023-05-15T17:05:21.847Z,4.00
2023-05-15T17:07:49.657Z,2.33
2023-05-15T17:10:17.303Z,3.00
2023-05-15T17:12:46.461Z,2.60
2023-05-15T17:15:14.159Z,3.35
2023-05-15T17:17:42.512Z,2.80
2023-05-15T17:20:10.815Z,4.63
2023-05-15T17:22:39.787Z,2.72
2023-05-15T17:25:08.352Z,2.33
2023-05-15T17:27:40.220Z,3.10
2023-05-15T17:30:10.079Z,2.92
2023-05-15T17:32:37.895Z,2.97
2023-05-15T17:35:05.883Z,3.50
2023-05-15T17:37:33.746Z,2.55
2023-05-15T17:40:01.563Z,3.20
2023-05-15T17:42:29.422Z,2.38
2023-05-15T17:44:57.832Z,2.65
2023-05-15T17:47:26.907Z,2.13
2023-05-15T17:49:54.824Z,3.50
2023-05-15T17:52:22.519Z,2.80
2023-05-15T17:54:50.557Z,3.08
2023-05-15T17:57:18.187Z,2.97
2023-05-15T17:59:45.808Z,3.15
2023-05-15T18:02:13.490Z,3.65
2023-05-15T18:04:42.639Z,2.40
2023-05-15T18:07:10.521Z,5.10
2023-05-15T18:09:39.337Z,3.85
2023-05-15T18:12:07.425Z,3.22
2023-05-15T18:14:35.087Z,4.30
2023-05-15T18:17:03.427Z,3.50
2023-05-15T18:19:32.274Z,3.78
2023-05-15T18:22:03.285Z,4.03
2023-05-15T18:24:30.958Z,3.53
2023-05-15T18:26:59.343Z,2.97
2023-05-15T18:29:26.979Z,2.95
2023-05-15T18:31:54.753Z,2.63
2023-05-15T18:34:22.407Z,3.75
2023-05-15T18:36:52.103Z,2.92
2023-05-15T18:39:21.190Z,3.38
2023-05-15T18:41:48.829Z,3.25
2023-05-15T18:44:16.535Z,2.70
2023-05-15T18:46:44.198Z,4.18
2023-05-15T18:49:11.828Z,2.78
2023-05-15T18:51:39.469Z,2.60
2023-05-15T18:54:07.631Z,2.92
2023-05-15T18:56:36.722Z,2.88
2023-05-15T18:59:04.436Z,3.05
2023-05-15T19:01:35.764Z,3.22
2023-05-15T19:04:06.440Z,2.47
2023-05-15T19:06:34.384Z,2.97
2023-05-15T19:09:02.362Z,4.55
2023-05-15T19:11:30.388Z,2.25
2023-05-15T19:13:59.465Z,2.55
2023-05-15T19:16:28.723Z,2.67
2023-05-15T19:18:56.621Z,2.45
2023-05-15T19:21:24.805Z,2.83
2023-05-15T19:23:52.434Z,2.83
2023-05-15T19:26:21.688Z,3.03
2023-05-15T19:28:49.420Z,1.98
2023-05-15T19:31:30.820Z,2.22
2023-05-15T19:34:00.001Z,2.83
2023-05-15T19:36:27.871Z,2.30
2023-05-15T19:38:55.527Z,1.85
2023-05-15T19:41:23.630Z,1.95
2023-05-15T19:43:51.597Z,2.45
2023-05-15T19:46:20.952Z,2.92
2023-05-15T19:48:48.700Z,2.30
2023-05-15T19:51:16.677Z,2.38
2023-05-15T19:53:44.814Z,1.73
2023-05-15T19:56:13.784Z,2.85
2023-05-15T19:58:41.509Z,2.05
2023-05-15T20:01:33.921Z,1.90
2023-05-15T20:04:03.121Z,2.38
2023-05-15T20:06:31.369Z,2.75
2023-05-15T20:08:59.012Z,1.85
2023-05-15T20:11:27.176Z,2.75
2023-05-15T20:13:54.932Z,2.97
2023-05-15T20:16:22.695Z,2.85
2023-05-15T20:18:54.443Z,2.90
2023-05-15T20:21:26.088Z,2.50
2023-05-15T20:23:53.907Z,2.38
2023-05-15T20:26:22.454Z,2.65
2023-05-15T20:28:57.573Z,3.22
2023-05-15T20:31:25.438Z,2.90
2023-05-15T20:33:53.090Z,2.70
2023-05-15T20:36:25.169Z,2.17
2023-05-15T20:38:55.086Z,2.83
2023-05-15T20:41:23.331Z,2.00
2023-05-15T20:43:51.384Z,1.90
2023-05-15T20:46:19.645Z,3.47
2023-05-15T20:48:47.600Z,2.10
2023-05-15T20:51:15.997Z,2.45
2023-05-15T20:53:44.219Z,2.72
2023-05-15T20:56:17.049Z,2.00
2023-05-15T20:58:44.737Z,2.13
2023-05-15T21:01:12.449Z,2.72
2023-05-15T21:03:40.290Z,2.50
2023-05-15T21:06:08.309Z,2.38
2023-05-15T21:08:35.975Z,2.25
2023-05-15T21:11:03.651Z,2.20
2023-05-15T21:13:32.697Z,2.13
2023-05-15T21:16:00.402Z,1.77
2023-05-15T21:18:28.042Z,2.33
2023-05-15T21:20:55.831Z,1.90
2023-05-15T21:23:23.515Z,2.00
2023-05-15T21:25:52.577Z,3.28
2023-05-15T21:28:20.760Z,2.35
2023-05-15T21:31:21.708Z,2.28
2023-05-15T21:33:51.042Z,2.05
2023-05-15T21:36:18.808Z,2.10
2023-05-15T21:38:46.512Z,2.53
2023-05-15T21:41:14.239Z,3.50
2023-05-15T21:43:42.014Z,2.25
2023-05-15T21:46:11.891Z,3.72
2023-05-15T21:48:39.659Z,2.58
2023-05-15T21:51:08.713Z,2.67
2023-05-15T21:53:36.776Z,2.30
2023-05-15T21:56:04.521Z,2.13
2023-05-15T21:58:32.197Z,2.47
2023-05-15T22:00:59.863Z,2.45
2023-05-15T22:03:27.710Z,2.20
2023-05-15T22:05:55.516Z,1.88
2023-05-15T22:08:24.505Z,2.22
2023-05-15T22:10:52.151Z,3.50
2023-05-15T22:13:21.330Z,4.72
2023-05-15T22:15:48.967Z,2.47
2023-05-15T22:18:16.608Z,3.08
2023-05-15T22:20:45.176Z,2.67
2023-05-15T22:23:12.810Z,2.80
2023-05-15T22:25:43.851Z,1.98
2023-05-15T22:28:12.160Z,2.60
2023-05-15T22:30:39.855Z,2.40
2023-05-15T22:33:07.667Z,1.67
2023-05-15T22:35:35.405Z,2.28
2023-05-15T22:38:03.059Z,2.55
2023-05-15T22:40:30.782Z,2.90
2023-05-15T22:42:59.824Z,2.58
2023-05-15T22:45:27.499Z,2.63
2023-05-15T22:47:55.153Z,1.98
2023-05-15T22:50:22.809Z,3.03
2023-05-15T22:52:50.646Z,2.63
2023-05-15T22:55:18.818Z,2.88
2023-05-15T22:57:46.467Z,3.00
2023-05-15T23:00:16.221Z,3.22
2023-05-15T23:02:44.925Z,2.20
2023-05-15T23:05:12.905Z,1.90
2023-05-15T23:07:41.359Z,3.03
2023-05-15T23:10:09.852Z,2.20
2023-05-15T23:12:37.519Z,2.33
2023-05-15T23:15:05.615Z,2.75
2023-05-15T23:17:34.719Z,4.85
2023-05-15T23:20:02.346Z,2.85
2023-05-15T23:22:30.091Z,2.25
2023-05-15T23:24:57.938Z,3.03
2023-05-15T23:27:25.635Z,2.85
2023-05-15T23:29:53.260Z,2.72
2023-05-15T23:32:22.834Z,2.20
2023-05-15T23:34:52.044Z,3.28
2023-05-15T23:37:19.712Z,3.97
2023-05-15T23:39:48.699Z,2.22
2023-05-15T23:42:16.524Z,3.22
2023-05-15T23:44:44.155Z,2.55
2023-05-15T23:47:12.721Z,1.55
2023-05-15T23:49:40.356Z,1.88
2023-05-15T23:52:09.660Z,2.15
2023-05-15T23:54:37.322Z,2.85
2023-05-15T23:57:05.072Z,3.25
2023-05-15T23:59:32.864Z,2.22
